createdAt,value
2018-05-18T00:02:22.229Z,102128.06
2018-05-18T00:04:49.075Z,102133.88
2018-05-18T00:07:16.019Z,102134.33
2018-05-18T00:09:42.904Z,102136.77
2018-05-18T00:12:09.752Z,102142.27
2018-05-18T00:14:36.628Z,102129.81
2018-05-18T00:17:03.518Z,102129.61
2018-05-18T00:19:31.106Z,102127.67
2018-05-18T00:21:57.944Z,102124.78
2018-05-18T00:24:25.095Z,102122.16
2018-05-18T00:26:51.936Z,102120.77
2018-05-18T00:29:18.785Z,102126.14
2018-05-18T00:31:45.682Z,102120.48
2018-05-18T00:34:12.524Z,102122.48
2018-05-18T00:36:39.366Z,102116.30
2018-05-18T00:39:06.579Z,102118.45
2018-05-18T00:41:33.418Z,102120.64
2018-05-18T00:44:00.276Z,102124.56
2018-05-18T00:46:27.479Z,102127.20
2018-05-18T00:48:54.322Z,102125.69
2018-05-18T00:51:21.160Z,102122.48
2018-05-18T00:53:48.360Z,102124.30
2018-05-18T00:56:15.194Z,102120.70
2018-05-18T00:58:42.032Z,102120.21
2018-05-18T01:01:09.820Z,102118.06
2018-05-18T01:03:36.659Z,102118.63
2018-05-18T01:06:03.532Z,102123.52
2018-05-18T01:08:30.861Z,102114.47
2018-05-18T01:10:57.732Z,102118.74
2018-05-18T01:13:24.575Z,102121.37
2018-05-18T01:15:51.571Z,102124.87
2018-05-18T01:18:18.364Z,102113.47
2018-05-18T01:20:45.255Z,102110.30
2018-05-18T01:23:13.260Z,102119.76
2018-05-18T01:25:40.103Z,102106.86
2018-05-18T01:28:06.937Z,102112.23
2018-05-18T01:30:34.094Z,102112.77
2018-05-18T01:33:00.988Z,102122.64
2018-05-18T01:35:27.836Z,102115.75
2018-05-18T01:37:55.032Z,102113.11
2018-05-18T01:40:21.868Z,102115.81
2018-05-18T01:42:48.721Z,102109.66
2018-05-18T01:45:15.872Z,102113.27
2018-05-18T01:47:42.735Z,102110.56
2018-05-18T01:50:09.575Z,102107.02
2018-05-18T01:52:36.724Z,102109.73
2018-05-18T01:55:03.626Z,102114.39
2018-05-18T01:57:31.214Z,102113.47
2018-05-18T01:59:58.111Z,102114.08
2018-05-18T02:02:24.980Z,102113.29
2018-05-18T02:04:52.647Z,102114.39
2018-05-18T02:07:20.284Z,102117.77
2018-05-18T02:09:47.172Z,102115.13
2018-05-18T02:12:14.748Z,102118.72
2018-05-18T02:14:41.796Z,102115.76
2018-05-18T02:17:08.635Z,102116.16
2018-05-18T02:19:35.474Z,102116.96
2018-05-18T02:22:02.741Z,102120.33
2018-05-18T02:24:29.600Z,102125.36
2018-05-18T02:26:56.464Z,102125.77
2018-05-18T02:29:23.616Z,102121.70
2018-05-18T02:31:50.474Z,102130.83
2018-05-18T02:34:17.405Z,102117.69
2018-05-18T02:36:44.720Z,102118.74
2018-05-18T02:39:11.603Z,102123.55
2018-05-18T02:41:38.467Z,102111.34
2018-05-18T02:44:05.767Z,102113.80
2018-05-18T02:46:32.619Z,102115.67
2018-05-18T02:48:59.464Z,102111.00
2018-05-18T02:51:26.599Z,102111.73
2018-05-18T02:53:53.444Z,102121.74
2018-05-18T02:56:20.284Z,102113.52
2018-05-18T02:58:47.905Z,102119.98
2018-05-18T03:01:14.752Z,102111.05
2018-05-18T03:03:41.619Z,102115.34
2018-05-18T03:06:09.244Z,102117.59
2018-05-18T03:08:36.091Z,102120.20
2018-05-18T03:11:02.945Z,102119.91
2018-05-18T03:13:30.049Z,102117.67
2018-05-18T03:15:56.891Z,102120.80
2018-05-18T03:18:23.727Z,102108.92
2018-05-18T03:20:50.992Z,102100.34
2018-05-18T03:23:17.839Z,102110.05
2018-05-18T03:25:44.681Z,102101.86
2018-05-18T03:28:11.580Z,102106.66
2018-05-18T03:30:38.416Z,102109.57
2018-05-18T03:33:05.292Z,102115.41
2018-05-18T03:35:33.282Z,102108.42
2018-05-18T03:38:01.003Z,102118.66
2018-05-18T03:40:27.844Z,102119.17
2018-05-18T03:42:55.021Z,102117.75
2018-05-18T03:45:22.596Z,102122.58
2018-05-18T03:47:49.450Z,102119.91
2018-05-18T03:50:16.365Z,102125.92
2018-05-18T03:52:43.991Z,102134.69
2018-05-18T03:55:10.841Z,102127.80
2018-05-18T03:57:37.738Z,102131.39
2018-05-18T04:00:04.636Z,102131.37
2018-05-18T04:02:50.182Z,102130.31
2018-05-18T04:05:35.637Z,102129.70
2018-05-18T04:08:21.676Z,102125.91
2018-05-18T04:10:48.536Z,102131.78
2018-05-18T04:13:15.372Z,102128.66
2018-05-18T04:15:42.513Z,102139.97
2018-05-18T04:18:09.477Z,102134.41
2018-05-18T04:20:36.362Z,102139.77
2018-05-18T04:23:04.007Z,102133.79
2018-05-18T04:25:30.849Z,102132.80
2018-05-18T04:27:57.694Z,102137.63
2018-05-18T04:30:24.660Z,102132.94
2018-05-18T04:32:51.473Z,102133.64
2018-05-18T04:35:18.330Z,102133.77
2018-05-18T04:37:46.128Z,102139.16
2018-05-18T04:40:13.015Z,102138.13
2018-05-18T04:42:40.820Z,102137.75
2018-05-18T04:45:09.029Z,102140.38
2018-05-18T04:47:36.566Z,102140.13
2018-05-18T04:50:03.436Z,102142.23
2018-05-18T04:52:30.616Z,102134.59
2018-05-18T04:54:57.469Z,102137.34
2018-05-18T04:57:24.321Z,102138.02
2018-05-18T04:59:51.224Z,102142.08
2018-05-18T05:02:18.811Z,102149.38
2018-05-18T05:04:45.668Z,102149.26
2018-05-18T05:07:12.873Z,102148.73
2018-05-18T05:09:39.721Z,102163.16
2018-05-18T05:12:06.540Z,102167.59
2018-05-18T05:14:34.531Z,102166.38
2018-05-18T05:17:01.372Z,102167.27
2018-05-18T05:19:28.476Z,102170.08
2018-05-18T05:21:55.680Z,102171.76
2018-05-18T05:24:22.525Z,102169.58
2018-05-18T05:26:49.364Z,102177.38
2018-05-18T05:29:16.519Z,102177.53
2018-05-18T05:31:43.356Z,102179.64
2018-05-18T05:34:10.253Z,102182.13
2018-05-18T05:36:37.212Z,102182.20
2018-05-18T05:39:04.107Z,102184.52
2018-05-18T05:41:30.953Z,102181.64
2018-05-18T05:43:59.167Z,102185.17
2018-05-18T05:46:26.004Z,102187.55
2018-05-18T05:48:52.875Z,102189.33
2018-05-18T05:51:20.579Z,102182.92
2018-05-18T05:53:47.426Z,102192.54
2018-05-18T05:56:14.288Z,102186.75
2018-05-18T05:58:41.521Z,102195.92
2018-05-18T06:01:08.359Z,102199.69
2018-05-18T06:03:35.219Z,102201.05
2018-05-18T06:06:02.144Z,102204.57
2018-05-18T06:08:29.004Z,102208.44
2018-05-18T06:10:55.859Z,102206.03
2018-05-18T06:13:23.094Z,102213.09
2018-05-18T06:15:49.972Z,102217.67
2018-05-18T06:18:16.802Z,102208.38
2018-05-18T06:20:44.140Z,102214.76
2018-05-18T06:23:10.989Z,102216.14
2018-05-18T06:25:37.852Z,102216.78
2018-05-18T06:28:04.763Z,102215.55
2018-05-18T06:30:32.348Z,102217.58
2018-05-18T06:32:59.210Z,102221.34
2018-05-18T06:35:26.432Z,102227.28
2018-05-18T06:37:53.260Z,102230.44
2018-05-18T06:40:20.831Z,102235.72
2018-05-18T06:42:48.091Z,102235.73
2018-05-18T06:45:15.659Z,102237.08
2018-05-18T06:47:42.484Z,102238.52
2018-05-18T06:50:10.144Z,102239.84
2018-05-18T06:52:37.827Z,102234.29
2018-05-18T06:55:04.640Z,102233.66
2018-05-18T06:57:31.818Z,102236.14
2018-05-18T06:59:58.652Z,102233.63
2018-05-18T07:02:25.481Z,102235.74
2018-05-18T07:04:53.135Z,102232.05
2018-05-18T07:07:20.719Z,102235.38
2018-05-18T07:09:47.559Z,102239.17
2018-05-18T07:12:15.331Z,102238.04
2018-05-18T07:14:55.047Z,102238.19
2018-05-18T07:17:22.239Z,102234.13
2018-05-18T07:19:49.241Z,102241.08
2018-05-18T07:22:16.241Z,102238.55
2018-05-18T07:24:43.389Z,102237.72
2018-05-18T07:27:10.388Z,102241.55
2018-05-18T07:29:37.234Z,102240.72
2018-05-18T07:32:04.643Z,102242.72
2018-05-18T07:34:31.628Z,102250.81
2018-05-18T07:36:58.484Z,102249.00
2018-05-18T07:39:25.385Z,102243.35
2018-05-18T07:41:52.236Z,102243.48
2018-05-18T07:44:19.246Z,102252.88
2018-05-18T07:46:46.152Z,102253.84
2018-05-18T07:49:12.987Z,102256.50
2018-05-18T07:51:39.830Z,102254.84
2018-05-18T07:54:07.050Z,102258.34
2018-05-18T07:56:33.908Z,102259.05
2018-05-18T07:59:00.751Z,102262.55
2018-05-18T08:01:27.657Z,102265.70
2018-05-18T08:03:55.315Z,102261.08
2018-05-18T08:06:22.177Z,102262.08
2018-05-18T08:08:50.184Z,102262.19
2018-05-18T08:11:17.051Z,102263.81
2018-05-18T08:13:45.361Z,102254.03
2018-05-18T08:16:12.642Z,102264.00
2018-05-18T08:18:39.499Z,102252.65
2018-05-18T08:21:06.364Z,102264.70
2018-05-18T08:23:39.436Z,102259.35
2018-05-18T08:26:06.341Z,102260.17
2018-05-18T08:28:51.958Z,102266.46
2018-05-18T08:31:18.827Z,102273.44
2018-05-18T08:33:45.678Z,102277.00
2018-05-18T08:36:12.844Z,102268.19
2018-05-18T08:38:39.688Z,102269.85
2018-05-18T08:41:06.537Z,102276.65
2018-05-18T08:43:34.343Z,102272.78
2018-05-18T08:46:01.207Z,102271.73
2018-05-18T08:48:28.050Z,102275.86
2018-05-18T08:50:54.936Z,102279.54
2018-05-18T08:53:21.768Z,102274.20
2018-05-18T08:55:48.612Z,102276.47
2018-05-18T08:58:15.519Z,102286.66
2018-05-18T09:00:42.528Z,102283.44
2018-05-18T09:03:09.465Z,102281.18
2018-05-18T09:05:36.389Z,102281.72
2018-05-18T09:08:03.303Z,102286.81
2018-05-18T09:10:30.157Z,102278.38
2018-05-18T09:12:57.812Z,102282.08
2018-05-18T09:15:24.661Z,102289.91
2018-05-18T09:17:51.794Z,102288.00
2018-05-18T09:20:19.784Z,102286.62
2018-05-18T09:22:46.612Z,102289.93
2018-05-18T09:25:13.444Z,102286.14
2018-05-18T09:27:41.340Z,102287.87
2018-05-18T09:30:08.307Z,102279.48
2018-05-18T09:32:35.136Z,102283.70
2018-05-18T09:35:02.381Z,102288.48
2018-05-18T09:37:29.220Z,102284.67
2018-05-18T09:39:56.161Z,102293.23
2018-05-18T09:42:22.976Z,102286.52
2018-05-18T09:44:49.880Z,102279.29
2018-05-18T09:47:17.411Z,102285.70
2018-05-18T09:49:45.392Z,102281.53
2018-05-18T09:52:12.220Z,102282.24
2018-05-18T09:54:39.935Z,102279.97
2018-05-18T09:57:06.697Z,102277.27
2018-05-18T09:59:33.531Z,102281.02
2018-05-18T10:02:00.386Z,102278.78
2018-05-18T10:04:27.281Z,102280.20
2018-05-18T10:06:54.131Z,102273.33
2018-05-18T10:09:20.973Z,102279.12
2018-05-18T10:11:47.855Z,102272.44
2018-05-18T10:14:14.679Z,102271.24
2018-05-18T10:16:42.261Z,102276.45
2018-05-18T10:19:09.883Z,102281.27
2018-05-18T10:21:36.716Z,102281.27
2018-05-18T10:24:03.593Z,102276.58
2018-05-18T10:26:30.521Z,102281.55
2018-05-18T10:28:57.338Z,102288.88
2018-05-18T10:31:25.043Z,102286.80
2018-05-18T10:33:52.926Z,102288.57
2018-05-18T10:36:19.797Z,102285.89
2018-05-18T10:38:47.378Z,102289.02
2018-05-18T10:41:15.016Z,102291.36
2018-05-18T10:43:41.864Z,102295.16
2018-05-18T10:46:09.507Z,102291.08
2018-05-18T10:48:36.779Z,102291.03
2018-05-18T10:51:03.616Z,102299.73
2018-05-18T10:53:30.458Z,102295.97
2018-05-18T10:55:57.623Z,102290.42
2018-05-18T10:58:24.453Z,102297.41
2018-05-18T11:00:51.357Z,102290.63
2018-05-18T11:03:18.400Z,102286.63
2018-05-18T11:05:45.243Z,102290.77
2018-05-18T11:08:12.102Z,102297.66
2018-05-18T11:10:38.991Z,102305.95
2018-05-18T11:13:06.580Z,102295.77
2018-05-18T11:15:34.179Z,102298.06
2018-05-18T11:18:01.405Z,102304.44
2018-05-18T11:20:28.236Z,102292.55
2018-05-18T11:22:55.144Z,102285.91
2018-05-18T11:25:22.036Z,102292.13
2018-05-18T11:27:48.875Z,102281.12
2018-05-18T11:30:15.946Z,102289.03
2018-05-18T11:32:43.024Z,102286.72
2018-05-18T11:35:09.881Z,102286.36
2018-05-18T11:37:36.919Z,102293.39
2018-05-18T11:40:03.859Z,102283.52
2018-05-18T11:42:30.686Z,102288.77
2018-05-18T11:44:57.520Z,102287.70
2018-05-18T11:47:24.532Z,102292.43
2018-05-18T11:49:52.112Z,102288.66
2018-05-18T11:52:18.965Z,102284.95
2018-05-18T11:54:46.905Z,102286.36
2018-05-18T11:57:13.705Z,102279.18
2018-05-18T11:59:41.012Z,102282.59
2018-05-18T12:02:09.067Z,102282.70
2018-05-18T12:04:36.655Z,102283.93
2018-05-18T12:07:04.861Z,102283.82
2018-05-18T12:09:31.740Z,102284.63
2018-05-18T12:11:58.572Z,102286.05
2018-05-18T12:14:25.424Z,102288.34
2018-05-18T12:16:52.315Z,102284.38
2018-05-18T12:19:19.163Z,102286.28
2018-05-18T12:21:46.349Z,102284.77
2018-05-18T12:24:14.447Z,102284.60
2018-05-18T12:26:41.302Z,102280.05
2018-05-18T12:29:08.208Z,102283.75
2018-05-18T12:31:35.117Z,102280.58
2018-05-18T12:34:02.135Z,102279.48
2018-05-18T12:36:30.109Z,102270.63
2018-05-18T12:38:56.996Z,102263.73
2018-05-18T12:41:23.835Z,102272.80
2018-05-18T12:43:50.684Z,102267.90
2018-05-18T12:46:17.596Z,102269.41
2018-05-18T12:48:44.668Z,102262.75
2018-05-18T12:51:11.546Z,102265.27
2018-05-18T12:53:38.431Z,102259.31
2018-05-18T12:56:05.307Z,102254.02
2018-05-18T12:58:32.178Z,102265.90
2018-05-18T13:00:59.109Z,102266.78
2018-05-18T13:03:25.984Z,102255.83
2018-05-18T13:05:52.860Z,102253.92
2018-05-18T13:08:20.484Z,102254.77
2018-05-18T13:10:47.351Z,102246.09
2018-05-18T13:13:14.188Z,102252.17
2018-05-18T13:15:41.216Z,102247.68
2018-05-18T13:18:08.060Z,102246.92
2018-05-18T13:20:34.887Z,102243.84
2018-05-18T13:23:02.035Z,102243.45
2018-05-18T13:25:28.869Z,102240.00
2018-05-18T13:27:56.465Z,102241.49
2018-05-18T13:30:23.444Z,102250.30
2018-05-18T13:32:50.300Z,102244.03
2018-05-18T13:35:17.321Z,102232.92
2018-05-18T13:37:44.254Z,102235.95
2018-05-18T13:40:11.101Z,102239.30
2018-05-18T13:42:37.928Z,102227.21
2018-05-18T13:45:05.233Z,102230.30
2018-05-18T13:47:32.049Z,102233.11
2018-05-18T13:49:58.889Z,102228.39
2018-05-18T13:52:26.108Z,102235.92
2018-05-18T13:54:52.999Z,102231.85
2018-05-18T13:57:19.855Z,102231.30
2018-05-18T13:59:46.746Z,102233.14
2018-05-18T14:02:13.588Z,102229.13
2018-05-18T14:04:40.432Z,102223.23
2018-05-18T14:07:07.328Z,102222.44
2018-05-18T14:09:34.151Z,102217.17
2018-05-18T14:12:00.985Z,102214.23
2018-05-18T14:14:27.877Z,102209.76
2018-05-18T14:16:54.731Z,102216.72
2018-05-18T14:19:22.300Z,102216.77
2018-05-18T14:21:49.924Z,102211.97
2018-05-18T14:24:16.769Z,102220.77
2018-05-18T14:26:43.612Z,102225.94
2018-05-18T14:29:10.530Z,102223.92
2018-05-18T14:31:37.363Z,102220.12
2018-05-18T14:34:05.017Z,102217.73
2018-05-18T14:36:32.105Z,102218.44
2018-05-18T14:38:58.952Z,102208.48
2018-05-18T14:41:25.793Z,102211.02
2018-05-18T14:43:52.985Z,102204.02
2018-05-18T14:46:19.813Z,102206.34
2018-05-18T14:48:46.652Z,102210.52
2018-05-18T14:51:13.945Z,102207.05
2018-05-18T14:53:40.731Z,102206.95
2018-05-18T14:56:07.572Z,102207.05
2018-05-18T14:58:34.898Z,102209.64
2018-05-18T15:01:01.696Z,102208.30
2018-05-18T15:03:28.524Z,102208.98
2018-05-18T15:05:55.433Z,102201.61
2018-05-18T15:08:22.271Z,102203.16
2018-05-18T15:10:49.111Z,102194.56
2018-05-18T15:13:16.006Z,102196.83
2018-05-18T15:15:42.836Z,102195.43
2018-05-18T15:18:09.677Z,102201.31
2018-05-18T15:20:36.686Z,102200.36
2018-05-18T15:23:03.540Z,102197.34
2018-05-18T15:25:30.387Z,102200.05
2018-05-18T15:27:57.272Z,102199.16
2018-05-18T15:30:24.108Z,102204.33
2018-05-18T15:32:50.953Z,102197.28
2018-05-18T15:35:18.107Z,102206.58
2018-05-18T15:37:45.392Z,102203.91
2018-05-18T15:40:12.228Z,102205.89
2018-05-18T15:42:39.190Z,102208.42
2018-05-18T15:45:05.999Z,102206.86
2018-05-18T15:47:32.866Z,102204.48
2018-05-18T15:49:59.751Z,102200.88
2018-05-18T15:52:26.589Z,102197.71
2018-05-18T15:54:53.444Z,102198.22
2018-05-18T15:57:20.656Z,102198.72
2018-05-18T15:59:47.443Z,102201.03
2018-05-18T16:02:14.283Z,102200.73
2018-05-18T16:04:41.437Z,102193.20
2018-05-18T16:07:08.284Z,102196.78
2018-05-18T16:09:35.121Z,102191.44
2018-05-18T16:12:02.154Z,102198.41
2018-05-18T16:14:29.728Z,102194.74
2018-05-18T16:16:56.559Z,102196.75
2018-05-18T16:19:24.190Z,102197.16
2018-05-18T16:21:51.032Z,102195.38
2018-05-18T16:24:17.875Z,102194.66
2018-05-18T16:26:44.757Z,102195.41
2018-05-18T16:29:11.643Z,102194.22
2018-05-18T16:31:38.484Z,102194.53
2018-05-18T16:34:05.657Z,102192.49
2018-05-18T16:36:32.511Z,102195.63
2018-05-18T16:38:59.533Z,102194.45
2018-05-18T16:41:26.758Z,102192.95
2018-05-18T16:43:53.603Z,102200.03
2018-05-18T16:46:20.452Z,102204.91
2018-05-18T16:48:47.348Z,102204.02
2018-05-18T16:51:14.179Z,102207.56
2018-05-18T16:53:41.016Z,102207.66
2018-05-18T16:56:07.908Z,102206.46
2018-05-18T16:58:35.636Z,102214.80
2018-05-18T17:01:02.573Z,102204.41
2018-05-18T17:03:29.703Z,102206.96
2018-05-18T17:05:57.343Z,102213.22
2018-05-18T17:08:24.456Z,102205.83
2018-05-18T17:10:51.823Z,102210.43
2018-05-18T17:13:18.712Z,102214.13
2018-05-18T17:15:45.553Z,102207.34
2018-05-18T17:18:12.576Z,102202.66
2018-05-18T17:20:40.555Z,102209.44
2018-05-18T17:23:07.414Z,102219.96
2018-05-18T17:25:34.308Z,102215.97
2018-05-18T17:28:01.131Z,102211.95
2018-05-18T17:30:28.103Z,102218.75
2018-05-18T17:32:55.467Z,102220.49
2018-05-18T17:35:22.438Z,102228.94
2018-05-18T17:37:49.365Z,102223.52
2018-05-18T17:40:17.210Z,102223.00
2018-05-18T17:42:44.095Z,102220.06
2018-05-18T17:45:10.984Z,102220.51
2018-05-18T17:47:38.420Z,102225.38
2018-05-18T17:50:05.289Z,102226.63
2018-05-18T17:52:33.217Z,102232.44
2018-05-18T17:55:01.567Z,102228.14
2018-05-18T17:57:29.308Z,102227.53
2018-05-18T17:59:56.148Z,102221.73
2018-05-18T18:02:23.323Z,102227.81
2018-05-18T18:04:50.406Z,102227.47
2018-05-18T18:07:17.251Z,102226.81
2018-05-18T18:09:45.340Z,102226.41
2018-05-18T18:12:12.171Z,102230.93
2018-05-18T18:14:39.022Z,102227.56
2018-05-18T18:17:06.683Z,102224.09
2018-05-18T18:19:34.443Z,102224.36
2018-05-18T18:22:01.288Z,102233.06
2018-05-18T18:24:28.652Z,102228.28
2018-05-18T18:26:55.488Z,102235.45
2018-05-18T18:29:22.699Z,102239.63
2018-05-18T18:31:49.876Z,102243.39
2018-05-18T18:34:18.439Z,102246.02
2018-05-18T18:36:45.268Z,102246.48
2018-05-18T18:39:12.420Z,102245.80
2018-05-18T18:41:39.263Z,102248.33
2018-05-18T18:44:06.109Z,102250.16
2018-05-18T18:46:33.737Z,102257.36
2018-05-18T18:49:00.582Z,102249.88
2018-05-18T18:51:27.430Z,102253.36
2018-05-18T18:53:54.322Z,102255.18
2018-05-18T18:56:21.928Z,102258.73
2018-05-18T18:58:48.900Z,102262.87
2018-05-18T19:01:15.704Z,102261.45
2018-05-18T19:03:42.588Z,102263.28
2018-05-18T19:06:09.427Z,102274.70
2018-05-18T19:08:37.056Z,102273.09
2018-05-18T19:11:04.641Z,102272.00
2018-05-18T19:13:31.492Z,102280.53
2018-05-18T19:15:58.403Z,102276.83
2018-05-18T19:18:25.987Z,102288.20
2018-05-18T19:20:53.031Z,102289.95
2018-05-18T19:23:21.051Z,102290.64
2018-05-18T19:25:47.890Z,102300.59
2018-05-18T19:28:14.769Z,102297.36
2018-05-18T19:30:42.420Z,102299.56
2018-05-18T19:33:10.016Z,102299.78
2018-05-18T19:35:37.135Z,102302.34
2018-05-18T19:38:04.267Z,102303.73
2018-05-18T19:40:31.096Z,102304.28
2018-05-18T19:42:58.198Z,102310.41
2018-05-18T19:45:25.836Z,102311.00
2018-05-18T19:47:52.693Z,102307.99
2018-05-18T19:50:20.295Z,102309.38
2018-05-18T19:52:47.185Z,102309.57
2018-05-18T19:55:14.031Z,102311.97
2018-05-18T19:57:41.905Z,102310.66
2018-05-18T20:00:08.797Z,102310.78
2018-05-18T20:02:35.628Z,102311.31
2018-05-18T20:05:02.529Z,102314.61
2018-05-18T20:07:29.688Z,102316.15
2018-05-18T20:09:56.531Z,102322.42
2018-05-18T20:12:23.414Z,102324.66
2018-05-18T20:14:50.579Z,102324.84
2018-05-18T20:17:17.433Z,102324.20
2018-05-18T20:19:44.317Z,102329.08
2018-05-18T20:22:11.165Z,102320.81
2018-05-18T20:24:38.004Z,102326.27
2018-05-18T20:27:04.887Z,102325.17
2018-05-18T20:29:32.041Z,102328.64
2018-05-18T20:31:58.878Z,102327.25
2018-05-18T20:34:25.743Z,102329.27
2018-05-18T20:36:52.984Z,102330.09
2018-05-18T20:39:19.824Z,102331.06
2018-05-18T20:41:46.661Z,102324.54
2018-05-18T20:44:13.688Z,102320.94
2018-05-18T20:46:40.528Z,102322.61
2018-05-18T20:49:07.371Z,102324.61
2018-05-18T20:51:34.500Z,102328.72
2018-05-18T20:54:01.337Z,102326.00
2018-05-18T20:56:28.207Z,102334.64
2018-05-18T20:58:55.401Z,102337.27
2018-05-18T21:01:22.252Z,102333.44
2018-05-18T21:03:49.180Z,102344.58
2018-05-18T21:06:16.834Z,102345.80
2018-05-18T21:08:44.452Z,102344.95
2018-05-18T21:11:11.296Z,102337.78
2018-05-18T21:13:38.191Z,102344.78
2018-05-18T21:16:05.059Z,102343.69
2018-05-18T21:18:32.007Z,102337.05
2018-05-18T21:20:59.148Z,102342.45
2018-05-18T21:23:25.974Z,102343.94
2018-05-18T21:25:53.557Z,102342.04
2018-05-18T21:28:20.805Z,102343.81
2018-05-18T21:30:48.632Z,102348.71
2018-05-18T21:33:15.458Z,102351.70
2018-05-18T21:35:42.617Z,102353.45
2018-05-18T21:38:09.471Z,102357.08
2018-05-18T21:40:36.309Z,102352.06
2018-05-18T21:43:03.512Z,102349.83
2018-05-18T21:45:30.343Z,102350.29
2018-05-18T21:47:57.195Z,102349.36
2018-05-18T21:50:24.204Z,102350.08
2018-05-18T21:52:51.041Z,102349.52
2018-05-18T21:55:17.880Z,102354.34
2018-05-18T21:57:44.772Z,102354.55
2018-05-18T22:00:11.636Z,102356.55
2018-05-18T22:02:38.487Z,102358.43
2018-05-18T22:05:05.644Z,102356.25
2018-05-18T22:07:32.521Z,102353.53
2018-05-18T22:09:59.353Z,102356.57
2018-05-18T22:12:26.251Z,102358.02
2018-05-18T22:14:53.834Z,102350.44
2018-05-18T22:17:20.669Z,102352.84
2018-05-18T22:19:47.536Z,102357.28
2018-05-18T22:22:14.400Z,102355.52
2018-05-18T22:24:41.216Z,102355.92
2018-05-18T22:27:08.087Z,102362.95
2018-05-18T22:29:34.905Z,102367.60
2018-05-18T22:32:01.779Z,102357.27
2018-05-18T22:34:28.885Z,102357.39
2018-05-18T22:36:55.771Z,102355.34
2018-05-18T22:39:22.603Z,102354.16
2018-05-18T22:41:49.477Z,102356.70
2018-05-18T22:44:16.303Z,102358.39
2018-05-18T22:46:43.157Z,102358.66
2018-05-18T22:49:10.041Z,102353.97
2018-05-18T22:51:37.619Z,102347.94
2018-05-18T22:54:04.436Z,102346.03
2018-05-18T22:56:32.050Z,102350.47
2018-05-18T22:59:02.552Z,102352.84
2018-05-18T23:01:31.184Z,102350.52
2018-05-18T23:03:58.083Z,102346.17
2018-05-18T23:06:24.911Z,102349.81
2018-05-18T23:08:52.490Z,102344.34
2018-05-18T23:11:19.451Z,102342.45
2018-05-18T23:13:46.276Z,102340.80
2018-05-18T23:16:13.104Z,102342.50
2018-05-18T23:18:40.713Z,102338.73
2018-05-18T23:21:07.533Z,102340.59
2018-05-18T23:23:34.380Z,102340.56
2018-05-18T23:26:01.261Z,102346.42
2018-05-18T23:28:28.185Z,102344.67
2018-05-18T23:30:55.022Z,102342.86
2018-05-18T23:33:22.033Z,102343.00
2018-05-18T23:35:49.607Z,102344.48
2018-05-18T23:38:17.214Z,102340.36
2018-05-18T23:40:44.094Z,102339.76
2018-05-18T23:43:11.674Z,102343.91
2018-05-18T23:45:39.229Z,102338.00
2018-05-18T23:48:06.980Z,102339.53
2018-05-18T23:50:33.803Z,102342.83
2018-05-18T23:53:00.639Z,102336.09
2018-05-18T23:55:27.601Z,102336.81
2018-05-18T23:57:54.592Z,102330.56
